createdAt,value
2018-12-29T00:00:56.327Z,15.67
2018-12-29T00:03:25.054Z,15.60
2018-12-29T00:05:53.569Z,14.43
2018-12-29T00:08:22.281Z,14.67
2018-12-29T00:10:50.866Z,13.67
2018-12-29T00:13:19.606Z,13.00
2018-12-29T00:15:48.201Z,13.80
2018-12-29T00:18:16.982Z,13.50
2018-12-29T00:20:45.598Z,12.87
2018-12-29T00:23:14.295Z,13.47
2018-12-29T00:25:42.873Z,13.53
2018-12-29T00:28:11.439Z,12.80
2018-12-29T00:30:40.172Z,12.27
2018-12-29T00:33:09.945Z,12.20
2018-12-29T00:35:41.242Z,13.37
2018-12-29T00:38:09.981Z,12.50
2018-12-29T00:40:38.500Z,12.07
2018-12-29T00:43:07.300Z,12.57
2018-12-29T00:45:36.026Z,12.67
2018-12-29T00:48:04.731Z,12.17
2018-12-29T00:50:33.372Z,11.73
2018-12-29T00:53:02.155Z,11.87
2018-12-29T00:55:30.776Z,11.73
2018-12-29T00:57:59.683Z,11.57
2018-12-29T01:00:28.327Z,10.80
2018-12-29T01:02:57.015Z,10.80
2018-12-29T01:05:25.738Z,11.17
2018-12-29T01:07:54.481Z,10.63
2018-12-29T01:10:23.033Z,10.43
2018-12-29T01:12:51.858Z,10.47
2018-12-29T01:15:25.798Z,10.13
2018-12-29T01:17:57.414Z,9.70
2018-12-29T01:20:29.049Z,10.70
2018-12-29T01:23:00.279Z,10.40
2018-12-29T01:25:29.211Z,9.77
2018-12-29T01:27:58.228Z,10.03
2018-12-29T01:30:29.225Z,10.57
2018-12-29T01:32:58.391Z,10.13
2018-12-29T01:35:27.298Z,10.23
2018-12-29T01:37:56.138Z,9.97
2018-12-29T01:40:24.996Z,9.93
2018-12-29T01:43:00.179Z,10.57
2018-12-29T01:45:29.053Z,10.13
2018-12-29T01:47:58.049Z,9.40
2018-12-29T01:50:26.973Z,10.43
2018-12-29T01:52:55.825Z,10.63
2018-12-29T01:55:24.919Z,10.33
2018-12-29T01:57:53.587Z,10.30
2018-12-29T02:00:22.269Z,9.70
2018-12-29T02:02:51.026Z,10.17
2018-12-29T02:05:19.837Z,9.80
2018-12-29T02:07:48.661Z,10.30
2018-12-29T02:10:17.346Z,10.13
2018-12-29T02:12:46.035Z,9.63
2018-12-29T02:15:14.874Z,10.67
2018-12-29T02:17:43.629Z,10.17
2018-12-29T02:20:12.660Z,9.83
2018-12-29T02:22:42.411Z,10.60
2018-12-29T02:25:13.177Z,9.50
2018-12-29T02:27:44.625Z,9.87
2018-12-29T02:30:13.400Z,9.73
2018-12-29T02:32:48.981Z,9.50
2018-12-29T02:35:17.955Z,10.07
2018-12-29T02:37:47.320Z,9.50
2018-12-29T02:40:20.168Z,8.90
2018-12-29T02:42:53.628Z,9.50
2018-12-29T02:45:22.638Z,9.40
2018-12-29T02:47:52.361Z,10.07
2018-12-29T02:50:23.646Z,10.30
2018-12-29T02:52:52.786Z,10.73
2018-12-29T02:55:23.130Z,9.70
2018-12-29T02:57:53.924Z,9.53
2018-12-29T03:00:26.688Z,9.80
2018-12-29T03:02:55.662Z,10.23
2018-12-29T03:05:25.110Z,9.80
2018-12-29T03:07:56.242Z,10.47
2018-12-29T03:10:25.017Z,9.37
2018-12-29T03:12:54.123Z,10.20
2018-12-29T03:15:22.935Z,10.40
2018-12-29T03:17:52.957Z,9.30
2018-12-29T03:20:21.633Z,9.27
2018-12-29T03:22:52.268Z,9.87
2018-12-29T03:25:21.127Z,9.30
2018-12-29T03:27:49.769Z,9.40
2018-12-29T03:30:18.531Z,9.47
2018-12-29T03:32:49.466Z,9.13
2018-12-29T03:35:18.169Z,9.70
2018-12-29T03:37:50.503Z,9.17
2018-12-29T03:40:19.247Z,8.70
2018-12-29T03:42:47.928Z,9.40
2018-12-29T03:45:16.621Z,9.77
2018-12-29T03:47:55.462Z,9.33
2018-12-29T03:50:24.218Z,9.13
2018-12-29T03:52:53.240Z,8.83
2018-12-29T03:55:23.029Z,9.53
2018-12-29T03:57:51.723Z,9.43
2018-12-29T04:00:20.543Z,8.97
2018-12-29T04:02:50.914Z,9.50
2018-12-29T04:05:19.488Z,9.27
2018-12-29T04:07:51.728Z,9.63
2018-12-29T04:10:21.034Z,9.67
2018-12-29T04:12:57.219Z,9.70
2018-12-29T04:15:26.022Z,10.27
2018-12-29T04:17:56.831Z,9.53
2018-12-29T04:20:25.581Z,9.10
2018-12-29T04:22:54.517Z,9.70
2018-12-29T04:25:24.926Z,8.80
2018-12-29T04:27:53.658Z,10.70
2018-12-29T04:30:23.901Z,9.60
2018-12-29T04:32:52.670Z,10.47
2018-12-29T04:35:21.532Z,10.30
2018-12-29T04:37:53.903Z,10.13
2018-12-29T04:40:22.788Z,10.33
2018-12-29T04:42:51.505Z,10.00
2018-12-29T04:45:23.146Z,10.00
2018-12-29T04:47:51.741Z,9.73
2018-12-29T04:50:20.554Z,9.80
2018-12-29T04:52:49.393Z,9.73
2018-12-29T04:55:18.462Z,11.30
2018-12-29T04:57:47.165Z,11.57
2018-12-29T05:00:15.844Z,12.13
2018-12-29T05:02:46.438Z,11.80
2018-12-29T05:05:15.158Z,12.17
2018-12-29T05:07:44.281Z,11.87
2018-12-29T05:10:12.957Z,11.83
2018-12-29T05:12:41.741Z,11.13
2018-12-29T05:15:10.488Z,11.73
2018-12-29T05:17:39.358Z,11.30
2018-12-29T05:20:08.539Z,12.50
2018-12-29T05:22:37.664Z,12.13
2018-12-29T05:25:06.435Z,13.10
2018-12-29T05:27:36.297Z,12.67
2018-12-29T05:30:06.376Z,12.23
2018-12-29T05:32:36.726Z,13.00
2018-12-29T05:35:05.471Z,12.60
2018-12-29T05:37:35.107Z,12.60
2018-12-29T05:40:06.095Z,13.23
2018-12-29T05:42:37.454Z,12.13
2018-12-29T05:45:06.283Z,12.90
2018-12-29T05:47:35.220Z,12.50
2018-12-29T05:50:04.686Z,12.53
2018-12-29T05:52:33.457Z,13.27
2018-12-29T05:55:03.625Z,12.50
2018-12-29T05:57:32.325Z,12.60
2018-12-29T06:00:01.131Z,11.93
2018-12-29T06:02:30.591Z,12.83
2018-12-29T06:04:59.344Z,12.87
2018-12-29T06:07:28.298Z,13.27
2018-12-29T06:09:59.156Z,12.10
2018-12-29T06:12:28.192Z,12.17
2018-12-29T06:14:57.467Z,12.93
2018-12-29T06:17:28.957Z,12.33
2018-12-29T06:19:58.592Z,12.87
2018-12-29T06:22:27.334Z,13.03
2018-12-29T06:24:56.169Z,13.50
2018-12-29T06:27:24.744Z,13.70
2018-12-29T06:29:53.603Z,13.80
2018-12-29T06:32:22.395Z,20.00
2018-12-29T06:34:51.297Z,19.53
2018-12-29T06:37:20.065Z,17.20
2018-12-29T06:39:48.866Z,16.93
2018-12-29T06:42:20.205Z,17.67
2018-12-29T06:44:48.917Z,16.80
2018-12-29T06:47:17.696Z,18.17
2018-12-29T06:49:46.503Z,18.30
2018-12-29T06:52:15.166Z,17.73
2018-12-29T06:54:44.292Z,17.10
2018-12-29T06:57:13.688Z,17.90
2018-12-29T06:59:42.532Z,18.30
2018-12-29T07:02:11.235Z,16.97
2018-12-29T07:04:40.121Z,16.30
2018-12-29T07:07:11.817Z,16.93
2018-12-29T07:09:42.376Z,16.03
2018-12-29T07:12:11.745Z,18.63
2018-12-29T07:14:40.466Z,15.97
2018-12-29T07:17:09.191Z,15.13
2018-12-29T07:19:37.936Z,16.03
2018-12-29T07:22:08.857Z,15.73
2018-12-29T07:24:37.911Z,16.37
2018-12-29T07:27:08.874Z,17.67
2018-12-29T07:29:38.296Z,17.17
2018-12-29T07:32:07.325Z,15.93
2018-12-29T07:34:36.110Z,16.33
2018-12-29T07:37:04.877Z,17.60
2018-12-29T07:39:36.192Z,18.13
2018-12-29T07:42:05.602Z,18.23
2018-12-29T07:44:38.414Z,17.57
2018-12-29T07:47:07.845Z,17.00
2018-12-29T07:49:36.717Z,17.57
2018-12-29T07:52:05.466Z,17.23
2018-12-29T07:54:34.406Z,17.50
2018-12-29T07:57:03.260Z,16.87
2018-12-29T07:59:32.457Z,17.73
2018-12-29T08:02:01.399Z,17.57
2018-12-29T08:04:31.461Z,17.27
2018-12-29T08:07:01.006Z,17.13
2018-12-29T08:09:31.921Z,16.80
2018-12-29T08:12:01.081Z,15.57
2018-12-29T08:14:30.014Z,15.53
2018-12-29T08:17:00.464Z,15.27
2018-12-29T08:19:29.261Z,16.17
2018-12-29T08:21:58.002Z,15.73
2018-12-29T08:24:27.006Z,15.07
2018-12-29T08:26:56.012Z,15.30
2018-12-29T08:29:24.735Z,15.43
2018-12-29T08:31:53.669Z,13.93
2018-12-29T08:34:22.569Z,15.03
2018-12-29T08:36:51.683Z,14.83
2018-12-29T08:39:20.446Z,14.47
2018-12-29T08:41:49.298Z,13.73
2018-12-29T08:44:18.323Z,14.73
2018-12-29T08:46:47.198Z,14.97
2018-12-29T08:49:18.673Z,14.60
2018-12-29T08:51:47.394Z,14.93
2018-12-29T08:54:16.237Z,13.80
2018-12-29T08:56:45.069Z,14.20
2018-12-29T08:59:15.636Z,14.00
2018-12-29T09:01:44.365Z,14.43
2018-12-29T09:04:13.091Z,12.73
2018-12-29T09:06:41.855Z,13.73
2018-12-29T09:09:15.118Z,13.93
2018-12-29T09:11:44.013Z,14.53
2018-12-29T09:14:12.711Z,14.33
2018-12-29T09:16:42.460Z,14.97
2018-12-29T09:19:11.128Z,14.07
2018-12-29T09:21:39.809Z,14.50
2018-12-29T09:24:08.469Z,13.23
2018-12-29T09:26:37.392Z,13.17
2018-12-29T09:29:06.251Z,11.60
2018-12-29T09:31:34.986Z,11.40
2018-12-29T09:34:03.636Z,11.67
2018-12-29T09:36:37.050Z,11.93
2018-12-29T09:39:07.392Z,11.80
2018-12-29T09:41:36.136Z,12.37
2018-12-29T09:44:04.675Z,11.13
2018-12-29T09:46:33.567Z,13.53
2018-12-29T09:49:02.187Z,13.07
2018-12-29T09:51:30.821Z,11.90
2018-12-29T09:53:59.527Z,11.80
2018-12-29T09:56:31.412Z,12.60
2018-12-29T09:59:00.114Z,11.97
2018-12-29T10:01:28.863Z,13.03
2018-12-29T10:03:57.469Z,13.20
2018-12-29T10:06:30.655Z,12.87
2018-12-29T10:09:02.762Z,13.10
2018-12-29T10:11:32.710Z,12.37
2018-12-29T10:14:01.669Z,10.63
2018-12-29T10:16:32.208Z,10.57
2018-12-29T10:19:01.930Z,11.83
2018-12-29T10:21:30.708Z,11.80
2018-12-29T10:23:59.743Z,11.77
2018-12-29T10:26:31.035Z,12.43
2018-12-29T10:29:01.614Z,11.73
2018-12-29T10:31:30.364Z,11.10
2018-12-29T10:34:02.066Z,11.33
2018-12-29T10:36:33.591Z,13.17
2018-12-29T10:39:03.097Z,12.60
2018-12-29T10:41:32.567Z,13.30
2018-12-29T10:44:02.797Z,13.00
2018-12-29T10:46:31.957Z,13.40
2018-12-29T10:49:01.163Z,12.40
2018-12-29T10:51:29.947Z,12.57
2018-12-29T10:53:58.961Z,13.13
2018-12-29T10:56:29.459Z,12.50
2018-12-29T10:58:58.227Z,11.97
2018-12-29T11:01:26.899Z,13.20
2018-12-29T11:03:55.688Z,14.23
2018-12-29T11:06:24.318Z,12.97
2018-12-29T11:08:53.033Z,14.00
2018-12-29T11:11:24.655Z,15.27
2018-12-29T11:13:56.343Z,15.37
2018-12-29T11:16:29.970Z,15.13
2018-12-29T11:18:59.476Z,15.67
2018-12-29T11:21:28.742Z,15.43
2018-12-29T11:23:57.836Z,15.43
2018-12-29T11:26:27.316Z,15.57
2018-12-29T11:28:56.522Z,15.67
2018-12-29T11:31:25.813Z,16.03
2018-12-29T11:33:56.498Z,15.97
2018-12-29T11:36:27.207Z,15.70
2018-12-29T11:38:57.706Z,15.80
2018-12-29T11:41:26.432Z,14.53
2018-12-29T11:43:58.044Z,14.00
2018-12-29T11:46:30.172Z,12.07
2018-12-29T11:48:59.270Z,11.90
2018-12-29T11:51:28.136Z,11.90
2018-12-29T11:53:57.294Z,10.80
2018-12-29T11:56:26.503Z,11.27
2018-12-29T11:58:55.809Z,11.17
2018-12-29T12:01:25.855Z,12.13
2018-12-29T12:03:54.905Z,10.30
2018-12-29T12:06:23.581Z,10.70
2018-12-29T12:08:53.159Z,10.50
2018-12-29T12:11:22.452Z,11.03
2018-12-29T12:13:52.647Z,11.10
2018-12-29T12:16:22.036Z,11.30
2018-12-29T12:18:50.744Z,10.60
2018-12-29T12:21:20.947Z,10.77
2018-12-29T12:23:50.927Z,12.03
2018-12-29T12:26:23.199Z,12.47
2018-12-29T12:28:52.843Z,12.50
2018-12-29T12:31:22.084Z,13.80
2018-12-29T12:33:51.103Z,14.30
2018-12-29T12:36:20.481Z,14.27
2018-12-29T12:38:49.466Z,13.87
2018-12-29T12:41:21.740Z,11.67
2018-12-29T12:43:50.474Z,12.30
2018-12-29T12:46:19.727Z,12.20
2018-12-29T12:48:49.070Z,11.80
2018-12-29T12:51:18.229Z,13.90
2018-12-29T12:53:47.756Z,13.90
2018-12-29T12:56:16.578Z,12.50
2018-12-29T12:58:48.713Z,12.43
2018-12-29T13:01:17.960Z,12.27
2018-12-29T13:03:46.733Z,12.53
2018-12-29T13:06:16.386Z,13.40
2018-12-29T13:08:45.107Z,13.37
2018-12-29T13:11:14.372Z,12.83
2018-12-29T13:13:43.549Z,13.80
2018-12-29T13:16:12.523Z,13.83
2018-12-29T13:18:41.187Z,13.60
2018-12-29T13:21:10.071Z,13.50
2018-12-29T13:23:39.073Z,14.07
2018-12-29T13:26:08.046Z,13.00
2018-12-29T13:28:37.148Z,13.73
2018-12-29T13:31:06.875Z,13.77
2018-12-29T13:33:35.840Z,13.60
2018-12-29T13:36:05.309Z,13.47
2018-12-29T13:38:33.955Z,14.07
2018-12-29T13:41:03.035Z,14.60
2018-12-29T13:43:31.886Z,14.33
2018-12-29T13:46:00.516Z,13.83
2018-12-29T13:48:29.261Z,13.90
2018-12-29T13:50:59.392Z,13.43
2018-12-29T13:53:32.966Z,14.07
2018-12-29T13:56:01.715Z,15.20
2018-12-29T13:58:30.387Z,15.07
2018-12-29T14:00:59.373Z,14.40
2018-12-29T14:03:28.308Z,13.33
2018-12-29T14:05:57.704Z,13.20
2018-12-29T14:08:27.122Z,14.20
2018-12-29T14:10:57.258Z,14.03
2018-12-29T14:13:26.374Z,13.83
2018-12-29T14:15:55.123Z,12.77
2018-12-29T14:18:28.408Z,15.00
2018-12-29T14:20:57.143Z,14.10
2018-12-29T14:23:26.414Z,13.70
2018-12-29T14:25:55.352Z,13.90
2018-12-29T14:28:24.418Z,13.60
2018-12-29T14:30:53.228Z,13.53
2018-12-29T14:33:22.236Z,16.77
2018-12-29T14:35:51.194Z,15.50
2018-12-29T14:38:20.346Z,16.50
2018-12-29T14:40:52.474Z,15.77
2018-12-29T14:43:21.375Z,16.07
2018-12-29T14:45:50.197Z,17.40
2018-12-29T14:48:19.237Z,20.27
2018-12-29T14:50:48.060Z,19.23
2018-12-29T14:53:16.874Z,17.13
2018-12-29T14:55:48.184Z,17.30
2018-12-29T14:58:17.549Z,17.23
2018-12-29T15:00:49.060Z,16.93
2018-12-29T15:03:20.651Z,16.70
2018-12-29T15:05:49.721Z,15.63
2018-12-29T15:08:19.358Z,16.63
2018-12-29T15:10:48.283Z,16.07
2018-12-29T15:13:17.484Z,16.73
2018-12-29T15:15:46.357Z,17.40
2018-12-29T15:18:15.830Z,17.23
2018-12-29T15:20:45.210Z,16.07
2018-12-29T15:23:17.025Z,16.83
2018-12-29T15:25:54.359Z,15.80
2018-12-29T15:28:23.622Z,18.50
2018-12-29T15:30:55.632Z,17.50
2018-12-29T15:33:31.160Z,18.00
2018-12-29T15:36:15.842Z,17.97
2018-12-29T15:38:39.198Z,21.67
2018-12-29T15:41:14.025Z,19.87
2018-12-29T15:43:45.543Z,19.80
2018-12-29T15:46:14.482Z,21.37
2018-12-29T15:48:50.837Z,20.80
2018-12-29T15:51:18.978Z,20.93
2018-12-29T15:54:04.445Z,20.73
2018-12-29T15:56:40.112Z,18.57
2018-12-29T15:59:09.594Z,19.67
2018-12-29T16:01:39.791Z,19.80
2018-12-29T16:04:09.160Z,18.97
2018-12-29T16:06:37.941Z,19.73
2018-12-29T16:09:07.857Z,19.80
2018-12-29T16:11:36.821Z,20.17
2018-12-29T16:14:07.780Z,20.33
2018-12-29T16:16:38.270Z,20.77
2018-12-29T16:19:07.120Z,20.80
2018-12-29T16:21:37.032Z,21.17
2018-12-29T16:24:06.408Z,20.80
2018-12-29T16:26:35.482Z,21.10
2018-12-29T16:29:04.331Z,20.47
2018-12-29T16:31:33.331Z,21.67
2018-12-29T16:34:02.352Z,20.30
2018-12-29T16:36:31.561Z,21.57
2018-12-29T16:39:00.361Z,20.13
2018-12-29T16:41:29.124Z,20.07
2018-12-29T16:43:58.806Z,20.57
2018-12-29T16:46:27.570Z,20.30
2018-12-29T16:49:06.562Z,21.53
2018-12-29T16:51:29.723Z,22.03
2018-12-29T16:53:58.602Z,21.80
2018-12-29T16:56:28.756Z,22.50
2018-12-29T16:58:57.825Z,21.23
2018-12-29T17:01:26.533Z,22.20
2018-12-29T17:03:55.414Z,22.00
2018-12-29T17:06:27.390Z,21.47
2018-12-29T17:08:56.031Z,23.33
2018-12-29T17:11:24.794Z,21.83
2018-12-29T17:13:56.083Z,21.67
2018-12-29T17:16:25.918Z,22.37
2018-12-29T17:18:56.951Z,22.00
2018-12-29T17:21:26.672Z,22.20
2018-12-29T17:23:55.561Z,21.50
2018-12-29T17:26:24.490Z,22.20
2018-12-29T17:28:53.284Z,21.87
2018-12-29T17:31:23.392Z,24.43
2018-12-29T17:33:54.688Z,23.30
2018-12-29T17:36:23.448Z,23.57
2018-12-29T17:38:52.359Z,25.30
2018-12-29T17:41:21.584Z,30.20
2018-12-29T17:43:50.734Z,86.90
2018-12-29T17:46:20.084Z,34.07
2018-12-29T17:48:48.846Z,72.77
2018-12-29T17:51:17.543Z,26.90
2018-12-29T17:53:48.206Z,26.13
2018-12-29T17:56:20.597Z,24.60
2018-12-29T17:58:49.520Z,23.57
2018-12-29T18:01:18.217Z,24.00
2018-12-29T18:03:46.946Z,22.50
2018-12-29T18:06:17.641Z,24.27
2018-12-29T18:08:46.475Z,27.97
2018-12-29T18:11:15.337Z,26.00
2018-12-29T18:13:44.261Z,26.73
2018-12-29T18:16:14.532Z,25.37
2018-12-29T18:18:43.394Z,23.23
2018-12-29T18:21:12.597Z,24.53
2018-12-29T18:23:41.379Z,25.53
2018-12-29T18:26:10.141Z,25.27
2018-12-29T18:28:38.915Z,25.77
2018-12-29T18:31:07.847Z,25.23
2018-12-29T18:33:39.736Z,25.57
2018-12-29T18:36:11.396Z,24.37
2018-12-29T18:38:40.392Z,25.43
2018-12-29T18:41:09.072Z,27.13
2018-12-29T18:43:37.916Z,26.50
2018-12-29T18:46:06.791Z,26.40
2018-12-29T18:48:35.763Z,26.73
2018-12-29T18:51:04.531Z,25.10
2018-12-29T18:53:33.239Z,23.70
2018-12-29T18:56:02.097Z,25.80
2018-12-29T18:58:30.852Z,24.27
2018-12-29T19:00:59.500Z,26.67
2018-12-29T19:03:28.330Z,25.80
2018-12-29T19:05:57.284Z,26.83
2018-12-29T19:08:26.045Z,27.73
2018-12-29T19:10:54.824Z,26.73
2018-12-29T19:13:23.854Z,27.53
2018-12-29T19:15:52.891Z,27.37
2018-12-29T19:18:21.650Z,24.87
2018-12-29T19:20:51.629Z,27.23
2018-12-29T19:23:20.841Z,26.00
2018-12-29T19:25:49.940Z,27.93
2018-12-29T19:28:18.952Z,28.73
2018-12-29T19:30:47.638Z,27.33
2018-12-29T19:33:16.707Z,26.97
2018-12-29T19:35:46.583Z,28.40
2018-12-29T19:38:15.636Z,29.60
2018-12-29T19:40:44.742Z,27.70
2018-12-29T19:43:17.006Z,28.00
2018-12-29T19:45:47.589Z,27.67
2018-12-29T19:48:16.420Z,27.67
2018-12-29T19:50:45.218Z,27.03
2018-12-29T19:53:14.323Z,27.07
2018-12-29T19:55:43.013Z,27.77
2018-12-29T19:58:11.752Z,26.37
2018-12-29T20:00:40.492Z,27.03
2018-12-29T20:03:11.272Z,27.83
2018-12-29T20:05:40.319Z,27.13
2018-12-29T20:08:09.032Z,26.37
2018-12-29T20:10:37.669Z,27.37
2018-12-29T20:13:06.684Z,27.00
2018-12-29T20:15:35.399Z,27.50
2018-12-29T20:18:04.127Z,28.27
2018-12-29T20:20:32.949Z,30.60
2018-12-29T20:23:02.688Z,28.57
2018-12-29T20:25:31.717Z,27.77
2018-12-29T20:28:00.502Z,28.83
2018-12-29T20:30:29.411Z,30.83
2018-12-29T20:33:01.003Z,31.00
2018-12-29T20:35:32.885Z,29.93
2018-12-29T20:38:01.620Z,29.53
2018-12-29T20:40:33.546Z,29.00
2018-12-29T20:43:02.349Z,30.57
2018-12-29T20:45:31.093Z,29.90
2018-12-29T20:47:59.917Z,28.30
2018-12-29T20:50:28.621Z,29.00
2018-12-29T20:53:00.511Z,31.03
2018-12-29T20:55:29.374Z,29.83
2018-12-29T20:57:58.326Z,29.83
2018-12-29T21:00:27.074Z,28.57
2018-12-29T21:02:56.132Z,29.50
2018-12-29T21:05:25.756Z,29.23
2018-12-29T21:07:54.632Z,29.57
2018-12-29T21:10:24.428Z,30.60
2018-12-29T21:12:53.241Z,30.57
2018-12-29T21:15:22.924Z,30.33
2018-12-29T21:17:51.839Z,28.70
2018-12-29T21:20:20.599Z,29.23
2018-12-29T21:22:49.377Z,29.53
2018-12-29T21:25:18.172Z,28.40
2018-12-29T21:27:47.168Z,29.40
2018-12-29T21:30:16.020Z,30.40
2018-12-29T21:32:44.977Z,28.63
2018-12-29T21:35:14.093Z,30.20
2018-12-29T21:37:43.017Z,29.70
2018-12-29T21:40:11.810Z,28.03
2018-12-29T21:42:40.958Z,27.87
2018-12-29T21:45:12.489Z,28.83
2018-12-29T21:47:41.289Z,31.30
2018-12-29T21:50:09.979Z,29.17
2018-12-29T21:52:38.866Z,30.10
2018-12-29T21:55:07.646Z,30.47
2018-12-29T21:57:36.392Z,29.80
2018-12-29T22:00:09.081Z,30.10
2018-12-29T22:02:37.755Z,29.13
2018-12-29T22:05:06.504Z,29.17
2018-12-29T22:07:35.278Z,28.23
2018-12-29T22:10:04.325Z,29.03
2018-12-29T22:12:36.141Z,29.10
2018-12-29T22:15:07.438Z,27.97
2018-12-29T22:17:39.144Z,28.57
2018-12-29T22:20:08.581Z,26.80
2018-12-29T22:22:37.384Z,29.00
2018-12-29T22:25:06.192Z,27.47
2018-12-29T22:27:35.453Z,28.87
2018-12-29T22:30:05.327Z,29.40
2018-12-29T22:32:34.070Z,29.33
2018-12-29T22:35:02.671Z,28.43
2018-12-29T22:37:31.496Z,27.27
2018-12-29T22:40:03.306Z,26.80
2018-12-29T22:42:32.201Z,28.37
2018-12-29T22:45:01.085Z,28.03
2018-12-29T22:47:30.275Z,28.57
2018-12-29T22:49:59.382Z,28.03
2018-12-29T22:52:28.012Z,26.33
2018-12-29T22:54:59.504Z,28.07
2018-12-29T22:57:28.181Z,27.13
2018-12-29T22:59:57.097Z,26.73
2018-12-29T23:02:28.756Z,26.60
2018-12-29T23:04:57.593Z,27.27
2018-12-29T23:07:26.325Z,28.27
2018-12-29T23:09:55.121Z,27.60
2018-12-29T23:12:23.949Z,26.77
2018-12-29T23:14:52.879Z,26.00
2018-12-29T23:17:21.648Z,26.70
2018-12-29T23:19:50.430Z,26.23
2018-12-29T23:22:19.423Z,27.83
2018-12-29T23:24:49.225Z,25.53
2018-12-29T23:27:20.169Z,25.90
2018-12-29T23:29:49.005Z,25.43
2018-12-29T23:32:17.920Z,27.27
2018-12-29T23:34:46.736Z,26.20
2018-12-29T23:37:15.766Z,26.17
2018-12-29T23:39:44.561Z,27.43
2018-12-29T23:42:14.552Z,24.00
2018-12-29T23:44:43.593Z,27.23
2018-12-29T23:47:13.793Z,28.93
2018-12-29T23:49:42.681Z,26.57
2018-12-29T23:52:11.740Z,27.70
2018-12-29T23:54:40.629Z,26.60
2018-12-29T23:57:09.434Z,27.33
2018-12-29T23:59:38.275Z,26.70
